sensor_id;sensor_type;location;lat;lon;timestamp;pressure;altitude;pressure_sealevel;temperature;humidity
5413;BME280;2729;50.056;8.678;2023-05-08T00:02:09;100632.34;;;16.22;100.00
5413;BME280;2729;50.056;8.678;2023-05-08T00:04:35;100629.78;;;16.40;100.00
5413;BME280;2729;50.056;8.678;2023-05-08T00:07:01;100629.78;;;16.40;100.00
5413;BME280;2729;50.056;8.678;2023-05-08T00:09:27;100628.47;;;16.30;100.00
5413;BME280;2729;50.056;8.678;2023-05-08T00:11:53;100624.06;;;16.11;100.00
5413;BME280;2729;50.056;8.678;2023-05-08T00:14:19;100629.25;;;16.12;100.00
5413;BME280;2729;50.056;8.678;2023-05-08T00:16:45;100630.91;;;16.35;100.00
5413;BME280;2729;50.056;8.678;2023-05-08T00:19:11;100631.19;;;16.29;100.00
5413;BME280;2729;50.056;8.678;2023-05-08T00:21:37;100632.81;;;16.31;100.00
5413;BME280;2729;50.056;8.678;2023-05-08T00:24:04;100630.44;;;16.25;100.00
5413;BME280;2729;50.056;8.678;2023-05-08T00:26:30;100634.41;;;16.15;100.00
5413;BME280;2729;50.056;8.678;2023-05-08T00:28:56;100628.34;;;16.13;100.00
5413;BME280;2729;50.056;8.678;2023-05-08T00:31:21;100626.50;;;16.15;100.00
5413;BME280;2729;50.056;8.678;2023-05-08T00:33:48;100631.78;;;15.93;100.00
5413;BME280;2729;50.056;8.678;2023-05-08T00:36:14;100628.56;;;15.87;100.00
5413;BME280;2729;50.056;8.678;2023-05-08T00:38:40;100630.75;;;15.97;100.00
5413;BME280;2729;50.056;8.678;2023-05-08T00:41:08;100618.84;;;16.09;100.00
5413;BME280;2729;50.056;8.678;2023-05-08T00:43:34;100625.44;;;15.99;100.00
5413;BME280;2729;50.056;8.678;2023-05-08T00:46:02;100617.41;;;16.02;100.00
5413;BME280;2729;50.056;8.678;2023-05-08T00:48:31;100628.38;;;15.91;100.00
5413;BME280;2729;50.056;8.678;2023-05-08T00:50:58;100628.06;;;15.99;100.00
5413;BME280;2729;50.056;8.678;2023-05-08T00:53:25;100636.75;;;16.01;100.00
5413;BME280;2729;50.056;8.678;2023-05-08T00:55:52;100634.78;;;16.06;100.00
5413;BME280;2729;50.056;8.678;2023-05-08T00:58:19;100634.31;;;15.96;100.00
5413;BME280;2729;50.056;8.678;2023-05-08T01:00:46;100634.25;;;15.98;100.00
5413;BME280;2729;50.056;8.678;2023-05-08T01:03:13;100636.25;;;16.13;100.00
5413;BME280;2729;50.056;8.678;2023-05-08T01:05:39;100636.38;;;16.10;100.00
5413;BME280;2729;50.056;8.678;2023-05-08T01:08:06;100638.06;;;16.11;100.00
5413;BME280;2729;50.056;8.678;2023-05-08T01:11:35;100635.25;;;16.16;100.00
5413;BME280;2729;50.056;8.678;2023-05-08T01:13:41;100640.38;;;16.19;100.00
5413;BME280;2729;50.056;8.678;2023-05-08T01:16:16;100644.13;;;16.13;100.00
5413;BME280;2729;50.056;8.678;2023-05-08T01:18:51;100644.41;;;16.07;100.00
5413;BME280;2729;50.056;8.678;2023-05-08T01:32:35;100649.72;;;16.05;100.00
5413;BME280;2729;50.056;8.678;2023-05-08T01:37:50;100652.69;;;16.18;100.00
5413;BME280;2729;50.056;8.678;2023-05-08T01:40:39;100655.97;;;16.03;100.00
5413;BME280;2729;50.056;8.678;2023-05-08T01:43:13;100655.56;;;15.92;100.00
5413;BME280;2729;50.056;8.678;2023-05-08T01:45:46;100659.22;;;15.88;100.00
5413;BME280;2729;50.056;8.678;2023-05-08T01:48:18;100655.75;;;15.87;100.00
5413;BME280;2729;50.056;8.678;2023-05-08T01:51:07;100658.19;;;15.92;100.00
5413;BME280;2729;50.056;8.678;2023-05-08T01:53:43;100660.09;;;15.88;100.00
5413;BME280;2729;50.056;8.678;2023-05-08T01:56:13;100662.00;;;15.85;100.00
5413;BME280;2729;50.056;8.678;2023-05-08T01:58:42;100661.38;;;16.00;100.00
5413;BME280;2729;50.056;8.678;2023-05-08T02:01:09;100661.50;;;15.97;100.00
5413;BME280;2729;50.056;8.678;2023-05-08T02:03:38;100663.38;;;15.93;100.00
5413;BME280;2729;50.056;8.678;2023-05-08T02:06:07;100671.28;;;15.93;100.00
5413;BME280;2729;50.056;8.678;2023-05-08T02:08:35;100670.50;;;15.91;100.00
5413;BME280;2729;50.056;8.678;2023-05-08T02:11:04;100675.81;;;15.90;100.00
5413;BME280;2729;50.056;8.678;2023-05-08T02:13:33;100675.81;;;15.90;100.00
5413;BME280;2729;50.056;8.678;2023-05-08T02:16:00;100682.69;;;15.94;100.00
5413;BME280;2729;50.056;8.678;2023-05-08T02:18:27;100679.75;;;15.80;100.00
5413;BME280;2729;50.056;8.678;2023-05-08T02:20:58;100683.91;;;15.63;100.00
5413;BME280;2729;50.056;8.678;2023-05-08T02:23:27;100685.50;;;15.67;100.00
5413;BME280;2729;50.056;8.678;2023-05-08T02:25:54;100680.22;;;15.67;100.00
5413;BME280;2729;50.056;8.678;2023-05-08T02:28:21;100681.41;;;15.59;100.00
5413;BME280;2729;50.056;8.678;2023-05-08T02:30:49;100678.69;;;15.62;100.00
5413;BME280;2729;50.056;8.678;2023-05-08T02:33:16;100679.19;;;15.71;100.00
5413;BME280;2729;50.056;8.678;2023-05-08T02:35:45;100682.78;;;15.69;100.00
5413;BME280;2729;50.056;8.678;2023-05-08T02:38:13;100686.47;;;15.65;100.00
5413;BME280;2729;50.056;8.678;2023-05-08T02:40:44;100692.78;;;15.61;100.00
5413;BME280;2729;50.056;8.678;2023-05-08T02:43:10;100692.19;;;15.51;100.00
5413;BME280;2729;50.056;8.678;2023-05-08T02:45:51;100698.81;;;15.63;100.00
5413;BME280;2729;50.056;8.678;2023-05-08T02:48:33;100699.63;;;15.65;100.00
5413;BME280;2729;50.056;8.678;2023-05-08T02:51:13;100699.88;;;15.57;100.00
5413;BME280;2729;50.056;8.678;2023-05-08T02:53:49;100703.06;;;15.42;100.00
5413;BME280;2729;50.056;8.678;2023-05-08T02:56:24;100699.06;;;15.32;100.00
5413;BME280;2729;50.056;8.678;2023-05-08T02:59:00;100701.88;;;15.51;100.00
5413;BME280;2729;50.056;8.678;2023-05-08T03:01:41;100697.53;;;15.50;100.00
5413;BME280;2729;50.056;8.678;2023-05-08T03:04:10;100701.06;;;15.49;100.00
5413;BME280;2729;50.056;8.678;2023-05-08T03:06:43;100699.75;;;15.37;100.00
5413;BME280;2729;50.056;8.678;2023-05-08T03:09:22;100694.44;;;15.38;100.00
5413;BME280;2729;50.056;8.678;2023-05-08T03:11:58;100690.78;;;15.42;100.00
5413;BME280;2729;50.056;8.678;2023-05-08T03:14:29;100696.38;;;15.57;100.00
5413;BME280;2729;50.056;8.678;2023-05-08T03:17:00;100695.47;;;15.58;100.00
5413;BME280;2729;50.056;8.678;2023-05-08T03:19:33;100695.81;;;15.49;100.00
5413;BME280;2729;50.056;8.678;2023-05-08T03:22:04;100692.09;;;15.54;100.00
5413;BME280;2729;50.056;8.678;2023-05-08T03:24:33;100695.25;;;15.40;100.00
5413;BME280;2729;50.056;8.678;2023-05-08T03:27:02;100694.06;;;15.26;100.00
5413;BME280;2729;50.056;8.678;2023-05-08T03:29:29;100694.06;;;15.26;100.00
5413;BME280;2729;50.056;8.678;2023-05-08T03:31:57;100689.34;;;15.34;100.00
5413;BME280;2729;50.056;8.678;2023-05-08T03:34:25;100694.50;;;15.37;100.00
5413;BME280;2729;50.056;8.678;2023-05-08T03:36:52;100701.41;;;15.39;100.00
5413;BME280;2729;50.056;8.678;2023-05-08T03:39:18;100696.34;;;15.35;100.00
5413;BME280;2729;50.056;8.678;2023-05-08T03:41:44;100701.47;;;15.38;100.00
5413;BME280;2729;50.056;8.678;2023-05-08T03:44:10;100696.28;;;15.36;100.00
5413;BME280;2729;50.056;8.678;2023-05-08T03:46:37;100698.16;;;15.33;100.00
5413;BME280;2729;50.056;8.678;2023-05-08T03:49:03;100700.97;;;15.28;100.00
5413;BME280;2729;50.056;8.678;2023-05-08T03:51:30;100694.09;;;15.24;100.00
5413;BME280;2729;50.056;8.678;2023-05-08T03:53:57;100699.66;;;15.17;100.00
5413;BME280;2729;50.056;8.678;2023-05-08T03:56:24;100699.00;;;15.10;100.00
5413;BME280;2729;50.056;8.678;2023-05-08T03:58:59;100701.38;;;15.18;100.00
5413;BME280;2729;50.056;8.678;2023-05-08T04:01:37;100706.41;;;15.24;100.00
5413;BME280;2729;50.056;8.678;2023-05-08T04:04:11;100709.41;;;15.13;100.00
5413;BME280;2729;50.056;8.678;2023-05-08T04:07:11;100721.72;;;15.12;100.00
5413;BME280;2729;50.056;8.678;2023-05-08T04:10:04;100716.75;;;15.28;100.00
5413;BME280;2729;50.056;8.678;2023-05-08T04:12:38;100725.31;;;15.10;100.00
5413;BME280;2729;50.056;8.678;2023-05-08T04:15:10;100725.69;;;14.99;100.00
5413;BME280;2729;50.056;8.678;2023-05-08T04:17:48;100726.97;;;15.12;100.00
5413;BME280;2729;50.056;8.678;2023-05-08T04:20:20;100731.25;;;15.15;100.00
5413;BME280;2729;50.056;8.678;2023-05-08T04:22:49;100730.63;;;15.08;100.00
5413;BME280;2729;50.056;8.678;2023-05-08T04:25:18;100726.53;;;15.25;100.00
5413;BME280;2729;50.056;8.678;2023-05-08T04:27:45;100733.03;;;15.15;100.00
5413;BME280;2729;50.056;8.678;2023-05-08T04:30:13;100730.50;;;15.11;100.00
5413;BME280;2729;50.056;8.678;2023-05-08T04:32:40;100731.00;;;14.98;100.00
5413;BME280;2729;50.056;8.678;2023-05-08T04:35:07;100730.91;;;15.01;100.00
5413;BME280;2729;50.056;8.678;2023-05-08T04:37:33;100736.69;;;15.10;100.00
5413;BME280;2729;50.056;8.678;2023-05-08T04:40:01;100734.16;;;15.07;100.00
5413;BME280;2729;50.056;8.678;2023-05-08T04:42:29;100738.13;;;15.19;100.00
5413;BME280;2729;50.056;8.678;2023-05-08T04:44:58;100740.75;;;15.19;100.00
5413;BME280;2729;50.056;8.678;2023-05-08T04:47:24;100736.69;;;15.10;100.00
5413;BME280;2729;50.056;8.678;2023-05-08T04:49:50;100731.75;;;15.01;100.00
5413;BME280;2729;50.056;8.678;2023-05-08T04:52:16;100737.66;;;15.08;100.00
5413;BME280;2729;50.056;8.678;2023-05-08T04:54:42;100738.19;;;15.18;100.00
5413;BME280;2729;50.056;8.678;2023-05-08T04:57:09;100733.25;;;15.08;100.00
5413;BME280;2729;50.056;8.678;2023-05-08T04:59:34;100740.91;;;15.15;100.00
5413;BME280;2729;50.056;8.678;2023-05-08T05:02:01;100735.66;;;15.15;100.00
5413;BME280;2729;50.056;8.678;2023-05-08T05:04:28;100740.59;;;15.24;100.00
5413;BME280;2729;50.056;8.678;2023-05-08T05:06:55;100742.75;;;15.12;100.00
5413;BME280;2729;50.056;8.678;2023-05-08T05:09:21;100745.16;;;15.19;100.00
5413;BME280;2729;50.056;8.678;2023-05-08T05:11:47;100750.31;;;15.22;100.00
5413;BME280;2729;50.056;8.678;2023-05-08T05:14:13;100754.22;;;15.10;100.00
5413;BME280;2729;50.056;8.678;2023-05-08T05:16:39;100750.94;;;15.28;100.00
5413;BME280;2729;50.056;8.678;2023-05-08T05:19:05;100746.22;;;15.13;100.00
5413;BME280;2729;50.056;8.678;2023-05-08T05:21:33;100746.13;;;14.91;100.00
5413;BME280;2729;50.056;8.678;2023-05-08T05:23:59;100743.63;;;14.88;100.00
5413;BME280;2729;50.056;8.678;2023-05-08T05:26:25;100751.59;;;14.85;100.00
5413;BME280;2729;50.056;8.678;2023-05-08T05:28:51;100747.97;;;14.89;100.00
5413;BME280;2729;50.056;8.678;2023-05-08T05:31:18;100764.00;;;14.82;100.00
5413;BME280;2729;50.056;8.678;2023-05-08T05:33:43;100764.59;;;15.15;100.00
5413;BME280;2729;50.056;8.678;2023-05-08T05:36:10;100776.28;;;14.81;100.00
5413;BME280;2729;50.056;8.678;2023-05-08T05:38:36;100766.03;;;14.98;100.00
5413;BME280;2729;50.056;8.678;2023-05-08T05:41:03;100770.97;;;15.07;100.00
5413;BME280;2729;50.056;8.678;2023-05-08T05:43:29;100773.16;;;14.95;100.00
5413;BME280;2729;50.056;8.678;2023-05-08T05:45:55;100771.06;;;15.04;100.00
5413;BME280;2729;50.056;8.678;2023-05-08T05:48:21;100776.75;;;15.17;100.00
5413;BME280;2729;50.056;8.678;2023-05-08T05:50:48;100769.41;;;15.02;100.00
5413;BME280;2729;50.056;8.678;2023-05-08T05:53:14;100774.41;;;15.09;100.00
5413;BME280;2729;50.056;8.678;2023-05-08T05:55:40;100779.19;;;14.98;100.00
5413;BME280;2729;50.056;8.678;2023-05-08T05:58:06;100778.41;;;15.20;100.00
5413;BME280;2729;50.056;8.678;2023-05-08T06:00:33;100789.88;;;15.42;100.00
5413;BME280;2729;50.056;8.678;2023-05-08T06:02:59;100787.59;;;15.33;100.00
5413;BME280;2729;50.056;8.678;2023-05-08T06:05:26;100794.47;;;15.12;100.00
5413;BME280;2729;50.056;8.678;2023-05-08T06:07:53;100793.13;;;15.25;100.00
5413;BME280;2729;50.056;8.678;2023-05-08T06:10:19;100789.84;;;15.19;100.00
5413;BME280;2729;50.056;8.678;2023-05-08T06:12:46;100786.69;;;15.34;100.00
5413;BME280;2729;50.056;8.678;2023-05-08T06:15:12;100787.88;;;15.49;100.00
5413;BME280;2729;50.056;8.678;2023-05-08T06:17:41;100802.75;;;15.50;100.00
5413;BME280;2729;50.056;8.678;2023-05-08T06:20:08;100790.94;;;15.63;100.00
5413;BME280;2729;50.056;8.678;2023-05-08T06:22:34;100793.38;;;15.67;100.00
5413;BME280;2729;50.056;8.678;2023-05-08T06:25:02;100799.44;;;15.44;100.00
5413;BME280;2729;50.056;8.678;2023-05-08T06:27:28;100806.84;;;15.58;100.00
5413;BME280;2729;50.056;8.678;2023-05-08T06:29:54;100803.44;;;15.55;100.00
5413;BME280;2729;50.056;8.678;2023-05-08T06:32:20;100809.47;;;15.58;100.00
5413;BME280;2729;50.056;8.678;2023-05-08T06:34:47;100806.78;;;15.60;100.00
5413;BME280;2729;50.056;8.678;2023-05-08T06:37:13;100815.59;;;15.60;100.00
5413;BME280;2729;50.056;8.678;2023-05-08T06:39:38;100808.19;;;15.70;100.00
5413;BME280;2729;50.056;8.678;2023-05-08T06:42:05;100813.91;;;15.56;100.00
5413;BME280;2729;50.056;8.678;2023-05-08T06:44:34;100815.47;;;15.63;100.00
5413;BME280;2729;50.056;8.678;2023-05-08T06:47:00;100815.59;;;15.60;100.00
5413;BME280;2729;50.056;8.678;2023-05-08T06:49:26;100814.25;;;15.47;100.00
5413;BME280;2729;50.056;8.678;2023-05-08T06:51:52;100806.34;;;15.47;100.00
5413;BME280;2729;50.056;8.678;2023-05-08T06:54:18;100810.19;;;15.38;100.00
5413;BME280;2729;50.056;8.678;2023-05-08T06:56:44;100809.16;;;15.42;100.00
5413;BME280;2729;50.056;8.678;2023-05-08T06:59:10;100805.59;;;15.43;100.00
5413;BME280;2729;50.056;8.678;2023-05-08T07:01:36;100808.91;;;15.25;100.00
5413;BME280;2729;50.056;8.678;2023-05-08T07:04:03;100810.88;;;15.19;100.00
5413;BME280;2729;50.056;8.678;2023-05-08T07:06:29;100806.53;;;15.18;100.00
5413;BME280;2729;50.056;8.678;2023-05-08T07:08:58;100810.63;;;15.26;100.00
5413;BME280;2729;50.056;8.678;2023-05-08T07:11:24;100804.03;;;15.15;100.00
5413;BME280;2729;50.056;8.678;2023-05-08T07:13:50;100806.84;;;15.33;100.00
5413;BME280;2729;50.056;8.678;2023-05-08T07:16:16;100801.19;;;15.21;100.00
5413;BME280;2729;50.056;8.678;2023-05-08T07:18:42;100805.09;;;15.59;100.00
5413;BME280;2729;50.056;8.678;2023-05-08T07:21:09;100806.84;;;15.58;100.00
5413;BME280;2729;50.056;8.678;2023-05-08T07:23:35;100804.59;;;15.48;100.00
5413;BME280;2729;50.056;8.678;2023-05-08T07:26:01;100808.50;;;15.62;100.00
5413;BME280;2729;50.056;8.678;2023-05-08T07:28:27;100808.75;;;15.53;100.00
5413;BME280;2729;50.056;8.678;2023-05-08T07:30:53;100814.31;;;15.45;100.00
5413;BME280;2729;50.056;8.678;2023-05-08T07:33:19;100814.44;;;15.67;100.00
5413;BME280;2729;50.056;8.678;2023-05-08T07:35:45;100814.72;;;15.83;100.00
5413;BME280;2729;50.056;8.678;2023-05-08T07:38:11;100824.06;;;15.68;100.00
5413;BME280;2729;50.056;8.678;2023-05-08T07:40:37;100817.28;;;15.61;100.00
5413;BME280;2729;50.056;8.678;2023-05-08T07:43:03;100811.34;;;15.80;100.00
5413;BME280;2729;50.056;8.678;2023-05-08T07:45:29;100810.13;;;15.88;100.00
5413;BME280;2729;50.056;8.678;2023-05-08T07:47:56;100813.22;;;15.51;100.00
5413;BME280;2729;50.056;8.678;2023-05-08T07:50:24;100815.84;;;15.51;100.00
5413;BME280;2729;50.056;8.678;2023-05-08T07:52:51;100823.56;;;15.56;100.00
5413;BME280;2729;50.056;8.678;2023-05-08T07:55:18;100825.44;;;15.79;100.00
5413;BME280;2729;50.056;8.678;2023-05-08T07:57:44;100815.41;;;15.65;100.00
5413;BME280;2729;50.056;8.678;2023-05-08T08:00:12;100818.31;;;15.81;100.00
5413;BME280;2729;50.056;8.678;2023-05-08T08:02:42;100819.00;;;15.86;100.00
5413;BME280;2729;50.056;8.678;2023-05-08T08:05:08;100822.38;;;15.89;100.00
5413;BME280;2729;50.056;8.678;2023-05-08T08:07:34;100813.06;;;15.81;100.00
5413;BME280;2729;50.056;8.678;2023-05-08T08:10:01;100823.31;;;15.65;100.00
5413;BME280;2729;50.056;8.678;2023-05-08T08:12:27;100816.91;;;15.72;100.00
5413;BME280;2729;50.056;8.678;2023-05-08T08:14:53;100820.63;;;15.66;100.00
5413;BME280;2729;50.056;8.678;2023-05-08T08:17:19;100812.38;;;15.75;100.00
5413;BME280;2729;50.056;8.678;2023-05-08T08:19:45;100816.31;;;15.64;100.00
5413;BME280;2729;50.056;8.678;2023-05-08T08:22:11;100820.28;;;15.75;100.00
5413;BME280;2729;50.056;8.678;2023-05-08T08:24:37;100817.00;;;15.69;100.00
5413;BME280;2729;50.056;8.678;2023-05-08T08:27:03;100812.47;;;15.96;100.00
5413;BME280;2729;50.056;8.678;2023-05-08T08:29:29;100813.56;;;15.90;100.00
5413;BME280;2729;50.056;8.678;2023-05-08T08:31:55;100809.56;;;16.25;100.00
5413;BME280;2729;50.056;8.678;2023-05-08T08:34:23;100813.59;;;16.12;100.00
5413;BME280;2729;50.056;8.678;2023-05-08T08:36:49;100819.03;;;16.07;100.00
5413;BME280;2729;50.056;8.678;2023-05-08T08:39:15;100806.31;;;15.73;100.00
5413;BME280;2729;50.056;8.678;2023-05-08T08:41:41;100808.78;;;15.78;100.00
5413;BME280;2729;50.056;8.678;2023-05-08T08:44:07;100807.34;;;15.93;100.00
5413;BME280;2729;50.056;8.678;2023-05-08T08:46:34;100805.16;;;16.26;100.00
5413;BME280;2729;50.056;8.678;2023-05-08T08:49:03;100810.78;;;16.17;100.00
5413;BME280;2729;50.056;8.678;2023-05-08T08:51:30;100812.63;;;16.15;100.00
5413;BME280;2729;50.056;8.678;2023-05-08T08:54:08;100821.81;;;16.26;100.00
5413;BME280;2729;50.056;8.678;2023-05-08T08:56:38;100819.00;;;16.31;100.00
5413;BME280;2729;50.056;8.678;2023-05-08T08:59:05;100820.59;;;16.57;100.00
5413;BME280;2729;50.056;8.678;2023-05-08T09:01:38;100829.22;;;16.38;100.00
5413;BME280;2729;50.056;8.678;2023-05-08T09:04:04;100829.03;;;16.21;100.00
5413;BME280;2729;50.056;8.678;2023-05-08T09:06:30;100822.31;;;16.58;100.00
5413;BME280;2729;50.056;8.678;2023-05-08T09:09:00;100822.69;;;16.70;100.00
5413;BME280;2729;50.056;8.678;2023-05-08T09:11:27;100823.03;;;16.83;100.00
5413;BME280;2729;50.056;8.678;2023-05-08T09:13:53;100822.38;;;16.56;100.00
5413;BME280;2729;50.056;8.678;2023-05-08T09:16:20;100828.38;;;16.38;100.00
5413;BME280;2729;50.056;8.678;2023-05-08T09:18:46;100818.56;;;16.85;100.00
5413;BME280;2729;50.056;8.678;2023-05-08T09:21:13;100820.59;;;16.79;100.00
5413;BME280;2729;50.056;8.678;2023-05-08T09:23:58;100819.34;;;17.28;100.00
5413;BME280;2729;50.056;8.678;2023-05-08T09:29:19;100828.72;;;17.15;100.00
5413;BME280;2729;50.056;8.678;2023-05-08T09:31:50;100821.50;;;17.39;100.00
5413;BME280;2729;50.056;8.678;2023-05-08T09:34:23;100824.31;;;17.15;100.00
5413;BME280;2729;50.056;8.678;2023-05-08T09:36:49;100824.63;;;17.28;100.00
5413;BME280;2729;50.056;8.678;2023-05-08T09:39:21;100830.63;;;17.31;100.00
5413;BME280;2729;50.056;8.678;2023-05-08T09:41:58;100830.69;;;17.30;100.00
5413;BME280;2729;50.056;8.678;2023-05-08T09:44:25;100837.47;;;17.35;100.00
5413;BME280;2729;50.056;8.678;2023-05-08T09:47:25;100838.34;;;17.36;100.00
5413;BME280;2729;50.056;8.678;2023-05-08T09:54:16;100845.19;;;16.99;100.00
5413;BME280;2729;50.056;8.678;2023-05-08T09:56:42;100846.84;;;17.22;100.00
5413;BME280;2729;50.056;8.678;2023-05-08T09:59:25;100851.66;;;17.13;100.00
5413;BME280;2729;50.056;8.678;2023-05-08T10:01:51;100848.56;;;17.23;100.00
5413;BME280;2729;50.056;8.678;2023-05-08T10:04:33;100843.63;;;17.16;100.00
5413;BME280;2729;50.056;8.678;2023-05-08T10:07:00;100855.44;;;17.27;100.00
5413;BME280;2729;50.056;8.678;2023-05-08T10:09:26;100853.91;;;17.42;100.00
5413;BME280;2729;50.056;8.678;2023-05-08T10:11:52;100857.28;;;17.25;100.00
5413;BME280;2729;50.056;8.678;2023-05-08T10:14:21;100844.31;;;17.60;100.00
5413;BME280;2729;50.056;8.678;2023-05-08T10:16:49;100852.44;;;17.55;100.00
5413;BME280;2729;50.056;8.678;2023-05-08T10:19:22;100849.00;;;17.53;100.00
5413;BME280;2729;50.056;8.678;2023-05-08T10:21:52;100849.31;;;17.86;100.00
5413;BME280;2729;50.056;8.678;2023-05-08T10:24:27;100843.88;;;18.08;100.00
5413;BME280;2729;50.056;8.678;2023-05-08T10:27:09;100841.19;;;18.28;100.00
5413;BME280;2729;50.056;8.678;2023-05-08T10:29:41;100842.16;;;17.49;100.00
5413;BME280;2729;50.056;8.678;2023-05-08T10:32:11;100844.94;;;17.46;100.00
5413;BME280;2729;50.056;8.678;2023-05-08T10:34:39;100841.22;;;17.71;100.00
5413;BME280;2729;50.056;8.678;2023-05-08T10:37:09;100838.09;;;17.61;100.00
5413;BME280;2729;50.056;8.678;2023-05-08T10:39:36;100839.50;;;17.70;100.00
5413;BME280;2729;50.056;8.678;2023-05-08T10:42:03;100834.97;;;18.11;100.00
5413;BME280;2729;50.056;8.678;2023-05-08T10:44:30;100830.81;;;18.61;100.00
5413;BME280;2729;50.056;8.678;2023-05-08T10:49:48;100835.94;;;18.65;100.00
5413;BME280;2729;50.056;8.678;2023-05-08T10:52:21;100822.97;;;18.58;100.00
5413;BME280;2729;50.056;8.678;2023-05-08T10:55:11;100832.84;;;18.74;100.00
5413;BME280;2729;50.056;8.678;2023-05-08T10:58:04;100833.38;;;18.80;100.00
5413;BME280;2729;50.056;8.678;2023-05-08T11:03:18;100827.69;;;19.40;100.00
5413;BME280;2729;50.056;8.678;2023-05-08T11:05:46;100826.41;;;19.64;100.00
5413;BME280;2729;50.056;8.678;2023-05-08T11:08:20;100812.84;;;19.86;100.00
5413;BME280;2729;50.056;8.678;2023-05-08T11:13:47;100810.28;;;20.32;100.00
5413;BME280;2729;50.056;8.678;2023-05-08T11:16:14;100816.03;;;20.24;100.00
5413;BME280;2729;50.056;8.678;2023-05-08T11:19:15;100814.66;;;20.17;100.00
5413;BME280;2729;50.056;8.678;2023-05-08T11:24:36;100813.88;;;20.62;100.00
5413;BME280;2729;50.056;8.678;2023-05-08T11:27:03;100808.97;;;20.86;100.00
5413;BME280;2729;50.056;8.678;2023-05-08T11:29:29;100802.34;;;20.16;100.00
5413;BME280;2729;50.056;8.678;2023-05-08T11:31:55;100811.16;;;19.85;100.00
5413;BME280;2729;50.056;8.678;2023-05-08T11:34:44;100812.00;;;20.33;100.00
5413;BME280;2729;50.056;8.678;2023-05-08T11:37:19;100806.28;;;20.56;100.00
5413;BME280;2729;50.056;8.678;2023-05-08T11:39:46;100809.81;;;20.86;100.00
5413;BME280;2729;50.056;8.678;2023-05-08T11:47:42;100795.16;;;20.49;100.00
5413;BME280;2729;50.056;8.678;2023-05-08T11:50:09;100798.28;;;20.72;100.00
5413;BME280;2729;50.056;8.678;2023-05-08T11:52:37;100794.28;;;21.25;100.00
5413;BME280;2729;50.056;8.678;2023-05-08T11:55:08;100795.47;;;21.19;100.00
5413;BME280;2729;50.056;8.678;2023-05-08T11:57:35;100793.09;;;20.54;100.00
5413;BME280;2729;50.056;8.678;2023-05-08T12:00:08;100801.41;;;20.33;100.00
5413;BME280;2729;50.056;8.678;2023-05-08T12:05:01;100792.94;;;20.42;100.00
5413;BME280;2729;50.056;8.678;2023-05-08T12:07:28;100793.53;;;20.93;100.00
5413;BME280;2729;50.056;8.678;2023-05-08T12:09:54;100791.53;;;21.55;100.00
5413;BME280;2729;50.056;8.678;2023-05-08T12:12:20;100794.56;;;21.63;100.00
5413;BME280;2729;50.056;8.678;2023-05-08T12:14:49;100791.44;;;21.42;100.00
5413;BME280;2729;50.056;8.678;2023-05-08T12:17:16;100786.22;;;21.55;100.00
5413;BME280;2729;50.056;8.678;2023-05-08T12:19:43;100788.69;;;21.43;100.00
5413;BME280;2729;50.056;8.678;2023-05-08T12:22:09;100792.47;;;21.68;100.00
5413;BME280;2729;50.056;8.678;2023-05-08T12:24:35;100790.28;;;21.89;100.00
5413;BME280;2729;50.056;8.678;2023-05-08T12:27:02;100786.78;;;21.74;100.00
5413;BME280;2729;50.056;8.678;2023-05-08T12:29:28;100782.56;;;21.98;100.00
5413;BME280;2729;50.056;8.678;2023-05-08T12:31:54;100789.97;;;22.07;100.00
5413;BME280;2729;50.056;8.678;2023-05-08T12:34:20;100788.69;;;21.58;100.00
5413;BME280;2729;50.056;8.678;2023-05-08T12:36:46;100784.84;;;22.04;100.00
5413;BME280;2729;50.056;8.678;2023-05-08T12:39:14;100782.31;;;22.30;100.00
5413;BME280;2729;50.056;8.678;2023-05-08T12:41:51;100781.00;;;22.23;100.00
5413;BME280;2729;50.056;8.678;2023-05-08T12:44:24;100783.56;;;22.51;100.00
5413;BME280;2729;50.056;8.678;2023-05-08T12:46:55;100782.94;;;22.60;100.00
5413;BME280;2729;50.056;8.678;2023-05-08T12:49:25;100785.47;;;22.49;98.54
5413;BME280;2729;50.056;8.678;2023-05-08T12:52:19;100778.84;;;22.42;100.00
5413;BME280;2729;50.056;8.678;2023-05-08T12:54:48;100772.84;;;22.65;100.00
5413;BME280;2729;50.056;8.678;2023-05-08T12:57:18;100772.19;;;22.62;100.00
5413;BME280;2729;50.056;8.678;2023-05-08T12:59:46;100774.28;;;22.84;100.00
5413;BME280;2729;50.056;8.678;2023-05-08T13:02:16;100764.81;;;22.53;100.00
5413;BME280;2729;50.056;8.678;2023-05-08T13:04:43;100767.41;;;22.67;100.00
5413;BME280;2729;50.056;8.678;2023-05-08T13:07:10;100763.50;;;22.72;100.00
5413;BME280;2729;50.056;8.678;2023-05-08T13:09:37;100762.19;;;22.26;100.00
5413;BME280;2729;50.056;8.678;2023-05-08T13:12:03;100754.47;;;22.08;100.00
5413;BME280;2729;50.056;8.678;2023-05-08T13:14:31;100758.81;;;22.36;100.00
5413;BME280;2729;50.056;8.678;2023-05-08T13:16:57;100755.72;;;22.69;100.00
5413;BME280;2729;50.056;8.678;2023-05-08T13:19:24;100749.59;;;23.07;100.00
5413;BME280;2729;50.056;8.678;2023-05-08T13:21:52;100748.22;;;23.65;100.00
5413;BME280;2729;50.056;8.678;2023-05-08T13:24:17;100746.81;;;23.34;95.11
5413;BME280;2729;50.056;8.678;2023-05-08T13:26:44;100746.59;;;23.75;93.68
5413;BME280;2729;50.056;8.678;2023-05-08T13:29:10;100738.81;;;23.72;97.50
5413;BME280;2729;50.056;8.678;2023-05-08T13:31:36;100738.97;;;23.94;95.85
5413;BME280;2729;50.056;8.678;2023-05-08T13:34:02;100744.41;;;23.93;92.35
5413;BME280;2729;50.056;8.678;2023-05-08T13:36:28;100741.06;;;24.02;91.75
5413;BME280;2729;50.056;8.678;2023-05-08T13:38:54;100743.97;;;23.50;96.22
5413;BME280;2729;50.056;8.678;2023-05-08T13:41:22;100743.19;;;23.35;100.00
5413;BME280;2729;50.056;8.678;2023-05-08T13:43:48;100739.59;;;23.23;100.00
5413;BME280;2729;50.056;8.678;2023-05-08T13:46:14;100737.16;;;23.46;100.00
5413;BME280;2729;50.056;8.678;2023-05-08T13:48:40;100742.25;;;23.23;93.97
5413;BME280;2729;50.056;8.678;2023-05-08T13:51:06;100741.94;;;23.15;97.27